createdAt,value
2023-05-14T05:00:55.415Z,1004.69
2023-05-14T05:01:55.268Z,1004.68
2023-05-14T05:02:55.308Z,1004.66
2023-05-14T05:03:55.307Z,1004.64
2023-05-14T05:04:55.253Z,1004.57
2023-05-14T05:05:55.227Z,1004.65
2023-05-14T05:06:55.222Z,1004.67
2023-05-14T05:07:55.236Z,1004.71
2023-05-14T05:08:55.220Z,1004.66
2023-05-14T05:09:55.193Z,1004.65
2023-05-14T05:10:55.185Z,1004.64
2023-05-14T05:12:00.179Z,1004.72
2023-05-14T05:12:55.144Z,1004.69
2023-05-14T05:13:55.145Z,1004.70
2023-05-14T05:14:55.123Z,1004.70
2023-05-14T05:15:55.157Z,1004.65
2023-05-14T05:16:55.195Z,1004.68
2023-05-14T05:17:55.112Z,1004.68
2023-05-14T05:18:55.122Z,1004.72
2023-05-14T05:19:55.071Z,1004.76
2023-05-14T05:20:55.061Z,1004.70
2023-05-14T05:21:55.070Z,1004.62
2023-05-14T05:23:00.056Z,1004.67
2023-05-14T05:23:55.034Z,1004.72
2023-05-14T05:24:55.011Z,1004.72
2023-05-14T05:25:55.002Z,1004.70
2023-05-14T05:26:54.991Z,1004.74
2023-05-14T05:27:54.997Z,1004.78
2023-05-14T05:28:54.988Z,1004.76
2023-05-14T05:29:54.959Z,1004.74
2023-05-14T05:30:55.003Z,1004.71
2023-05-14T05:31:55.000Z,1004.78
2023-05-14T05:32:54.961Z,1004.78
2023-05-14T05:33:59.972Z,1004.80
2023-05-14T05:34:54.917Z,1004.77
2023-05-14T05:35:54.897Z,1004.83
2023-05-14T05:36:54.879Z,1004.83
2023-05-14T05:37:54.900Z,1004.82
2023-05-14T05:38:54.858Z,1004.85
2023-05-14T05:39:54.858Z,1004.90
2023-05-14T05:40:54.841Z,1004.85
2023-05-14T05:41:54.825Z,1004.89
2023-05-14T05:42:54.819Z,1004.86
2023-05-14T05:43:54.800Z,1004.84
2023-05-14T05:44:59.810Z,1004.82
2023-05-14T05:45:54.794Z,1004.83
2023-05-14T05:46:54.913Z,1004.82
2023-05-14T05:47:54.865Z,1004.80
2023-05-14T05:48:54.768Z,1004.83
2023-05-14T05:49:54.729Z,1004.83
2023-05-14T05:50:54.717Z,1004.86
2023-05-14T05:51:54.738Z,1004.79
2023-05-14T05:52:54.697Z,1004.85
2023-05-14T05:53:54.687Z,1004.84
2023-05-14T05:54:54.692Z,1004.86
2023-05-14T05:55:59.725Z,1004.88
2023-05-14T05:56:54.674Z,1004.84
2023-05-14T05:57:54.671Z,1004.84
2023-05-14T05:58:54.632Z,1004.87
2023-05-14T05:59:54.624Z,1004.86
2023-05-14T06:00:54.668Z,1004.90
2023-05-14T06:01:54.648Z,1004.85
2023-05-14T06:02:54.605Z,1004.84
2023-05-14T06:03:54.585Z,1004.88
2023-05-14T06:04:54.733Z,1004.81
2023-05-14T06:05:54.563Z,1004.73
2023-05-14T06:06:59.564Z,1004.73
2023-05-14T06:07:54.535Z,1004.78
2023-05-14T06:08:54.516Z,1004.76
2023-05-14T06:09:54.519Z,1004.78
2023-05-14T06:10:54.527Z,1004.81
2023-05-14T06:11:54.505Z,1004.84
2023-05-14T06:12:54.478Z,1004.79
2023-05-14T06:13:54.464Z,1004.77
2023-05-14T06:14:54.449Z,1004.74
2023-05-14T06:15:54.461Z,1004.75
2023-05-14T06:16:54.486Z,1004.79
2023-05-14T06:17:59.499Z,1004.71
2023-05-14T06:18:54.423Z,1004.81
2023-05-14T06:19:54.408Z,1004.74
2023-05-14T06:20:54.468Z,1004.80
2023-05-14T06:21:54.396Z,1004.74
2023-05-14T06:22:54.362Z,1004.73
2023-05-14T06:23:54.352Z,1004.79
2023-05-14T06:24:54.350Z,1004.79
2023-05-14T06:25:54.330Z,1004.82
2023-05-14T06:26:54.329Z,1004.78
2023-05-14T06:27:54.332Z,1004.82
2023-05-14T06:28:59.323Z,1004.81
2023-05-14T06:29:54.293Z,1004.71
2023-05-14T06:30:54.268Z,1004.77
2023-05-14T06:31:54.335Z,1004.74
2023-05-14T06:32:54.344Z,1004.76
2023-05-14T06:33:54.266Z,1004.81
2023-05-14T06:34:54.240Z,1004.75
2023-05-14T06:35:54.218Z,1004.76
2023-05-14T06:36:54.227Z,1004.82
2023-05-14T06:37:54.244Z,1004.81
2023-05-14T06:38:54.195Z,1004.83
2023-05-14T06:39:59.265Z,1004.78
2023-05-14T06:40:54.161Z,1004.71
2023-05-14T06:41:54.155Z,1004.81
2023-05-14T06:42:54.145Z,1004.77
2023-05-14T06:43:54.142Z,1004.77
2023-05-14T06:44:54.118Z,1004.76
2023-05-14T06:45:54.179Z,1004.72
2023-05-14T06:46:54.097Z,1004.75
2023-05-14T06:47:54.222Z,1004.81
2023-05-14T06:48:54.106Z,1004.75
2023-05-14T06:49:54.061Z,1004.75
2023-05-14T06:50:59.071Z,1004.74
2023-05-14T06:51:54.054Z,1004.72
2023-05-14T06:52:54.055Z,1004.74
2023-05-14T06:53:54.038Z,1004.71
2023-05-14T06:54:54.004Z,1004.72
2023-05-14T06:55:53.997Z,1004.67
2023-05-14T06:56:53.984Z,1004.68
2023-05-14T06:57:53.992Z,1004.57
2023-05-14T06:58:53.982Z,1004.59
2023-05-14T06:59:53.949Z,1004.67
2023-05-14T07:00:53.959Z,1004.66
2023-05-14T07:01:58.998Z,1004.64
2023-05-14T07:02:53.988Z,1004.55
2023-05-14T07:03:53.961Z,1004.53
2023-05-14T07:04:53.898Z,1004.64
2023-05-14T07:05:53.886Z,1004.58
2023-05-14T07:06:53.873Z,1004.60
2023-05-14T07:07:53.878Z,1004.63
2023-05-14T07:08:53.874Z,1004.62
2023-05-14T07:09:53.858Z,1004.49
2023-05-14T07:10:53.850Z,1004.64
2023-05-14T07:11:53.814Z,1004.67
2023-05-14T07:12:58.865Z,1004.57
2023-05-14T07:13:53.793Z,1004.61
2023-05-14T07:14:53.813Z,1004.58
2023-05-14T07:15:53.786Z,1004.57
2023-05-14T07:16:53.819Z,1004.55
2023-05-14T07:17:53.788Z,1004.58
2023-05-14T07:18:53.824Z,1004.52
2023-05-14T07:19:53.728Z,1004.55
2023-05-14T07:20:53.726Z,1004.56
2023-05-14T07:21:53.725Z,1004.57
2023-05-14T07:22:53.692Z,1004.54
2023-05-14T07:23:58.736Z,1004.52
2023-05-14T07:24:53.680Z,1004.48
2023-05-14T07:25:53.660Z,1004.51
2023-05-14T07:26:53.656Z,1004.44
2023-05-14T07:27:53.658Z,1004.41
2023-05-14T07:28:53.625Z,1004.40
2023-05-14T07:29:53.614Z,1004.36
2023-05-14T07:30:53.683Z,1004.36
2023-05-14T07:31:53.657Z,1004.40
2023-05-14T07:32:53.618Z,1004.39
2023-05-14T07:33:53.568Z,1004.35
2023-05-14T07:34:58.606Z,1004.26
2023-05-14T07:35:53.559Z,1004.31
2023-05-14T07:36:53.538Z,1004.34
2023-05-14T07:37:53.529Z,1004.32
2023-05-14T07:38:53.522Z,1004.33
2023-05-14T07:39:53.527Z,1004.27
2023-05-14T07:40:53.514Z,1004.29
2023-05-14T07:41:53.479Z,1004.24
2023-05-14T07:42:53.479Z,1004.24
2023-05-14T07:43:53.463Z,1004.22
2023-05-14T07:44:53.448Z,1004.16
2023-05-14T07:45:58.473Z,1004.16
2023-05-14T07:46:53.455Z,1004.16
2023-05-14T07:47:53.490Z,1004.17
2023-05-14T07:48:53.407Z,1004.22
2023-05-14T07:49:53.402Z,1004.20
2023-05-14T07:50:53.393Z,1004.18
2023-05-14T07:51:53.371Z,1004.19
2023-05-14T07:52:53.366Z,1004.18
2023-05-14T07:53:53.344Z,1004.08
2023-05-14T07:54:53.336Z,1004.08
2023-05-14T07:55:53.352Z,1004.13
2023-05-14T07:56:58.336Z,1004.06
2023-05-14T07:57:53.311Z,1004.08
2023-05-14T07:58:53.302Z,1004.13
2023-05-14T07:59:53.286Z,1004.13
2023-05-14T08:00:53.288Z,1004.08
2023-05-14T08:01:53.286Z,1004.09
2023-05-14T08:02:53.339Z,1004.08
2023-05-14T08:03:53.300Z,1004.07
2023-05-14T08:04:53.226Z,1004.03
2023-05-14T08:05:53.219Z,1004.04
2023-05-14T08:06:53.194Z,1004.05
2023-05-14T08:07:58.225Z,1004.00
2023-05-14T08:08:53.174Z,1003.96
2023-05-14T08:09:53.187Z,1004.04
2023-05-14T08:10:53.290Z,1004.07
2023-05-14T08:11:53.165Z,1004.01
2023-05-14T08:12:53.132Z,1004.08
2023-05-14T08:13:53.125Z,1004.06
2023-05-14T08:14:53.157Z,1004.02
2023-05-14T08:15:53.103Z,1004.04
2023-05-14T08:16:53.130Z,1004.11
2023-05-14T08:17:53.152Z,1003.98
2023-05-14T08:18:58.125Z,1004.01
2023-05-14T08:19:53.077Z,1004.04
2023-05-14T08:20:53.046Z,1004.03
2023-05-14T08:21:53.046Z,1004.07
2023-05-14T08:22:53.040Z,1004.00
2023-05-14T08:23:53.014Z,1004.08
2023-05-14T08:24:53.011Z,1004.01
2023-05-14T08:25:52.997Z,1003.97
2023-05-14T08:26:52.993Z,1003.96
2023-05-14T08:27:52.994Z,1003.97
2023-05-14T08:28:52.975Z,1003.92
2023-05-14T08:29:57.985Z,1003.93
2023-05-14T08:30:52.981Z,1003.95
2023-05-14T08:31:52.932Z,1003.93
2023-05-14T08:32:52.973Z,1003.95
2023-05-14T08:33:52.915Z,1003.81
2023-05-14T08:34:52.926Z,1003.87
2023-05-14T08:35:52.894Z,1003.92
2023-05-14T08:36:52.875Z,1003.90
2023-05-14T08:37:52.865Z,1003.85
2023-05-14T08:38:52.867Z,1003.84
2023-05-14T08:39:52.842Z,1003.84
2023-05-14T08:40:57.872Z,1003.84
2023-05-14T08:41:52.821Z,1003.83
2023-05-14T08:42:52.809Z,1003.96
2023-05-14T08:43:52.824Z,1003.91
2023-05-14T08:44:52.787Z,1003.91
2023-05-14T08:45:52.772Z,1003.86
2023-05-14T08:46:52.774Z,1003.94
2023-05-14T08:47:52.931Z,1003.93
2023-05-14T08:48:52.770Z,1003.88
2023-05-14T08:49:52.726Z,1003.85
2023-05-14T08:50:52.720Z,1003.87
2023-05-14T08:51:57.745Z,1003.89
2023-05-14T08:52:52.700Z,1003.88
2023-05-14T08:53:52.694Z,1003.85
2023-05-14T08:54:52.712Z,1003.89
2023-05-14T08:55:52.657Z,1003.82
2023-05-14T08:56:52.652Z,1003.81
2023-05-14T08:57:52.662Z,1003.83
2023-05-14T08:58:52.625Z,1003.84
2023-05-14T08:59:52.633Z,1003.81
2023-05-14T09:00:52.632Z,1003.78
2023-05-14T09:01:52.612Z,1003.79
2023-05-14T09:02:57.700Z,1003.79
2023-05-14T09:03:52.623Z,1003.84
2023-05-14T09:04:52.559Z,1003.72
2023-05-14T09:05:52.572Z,1003.84
2023-05-14T09:06:52.577Z,1003.81
2023-05-14T09:07:52.531Z,1003.73
2023-05-14T09:08:52.519Z,1003.79
2023-05-14T09:09:52.500Z,1003.77
2023-05-14T09:10:52.499Z,1003.76
2023-05-14T09:11:52.578Z,1003.73
2023-05-14T09:12:52.479Z,1003.76
2023-05-14T09:13:57.491Z,1003.75
2023-05-14T09:14:52.475Z,1003.78
2023-05-14T09:15:52.501Z,1003.70
2023-05-14T09:16:52.567Z,1003.68
2023-05-14T09:17:52.477Z,1003.67
2023-05-14T09:18:52.474Z,1003.69
2023-05-14T09:19:52.412Z,1003.68
2023-05-14T09:20:52.389Z,1003.71
2023-05-14T09:21:52.363Z,1003.67
2023-05-14T09:22:52.377Z,1003.64
2023-05-14T09:23:52.341Z,1003.59
2023-05-14T09:24:57.355Z,1003.67
2023-05-14T09:25:52.359Z,1003.73
2023-05-14T09:26:52.313Z,1003.58
2023-05-14T09:27:52.297Z,1003.68
2023-05-14T09:28:52.289Z,1003.78
2023-05-14T09:29:52.281Z,1003.71
2023-05-14T09:30:52.277Z,1003.75
2023-05-14T09:31:52.352Z,1003.78
2023-05-14T09:32:52.321Z,1003.74
2023-05-14T09:33:52.231Z,1003.76
2023-05-14T09:34:52.230Z,1003.64
2023-05-14T09:35:58.431Z,1003.64
2023-05-14T09:36:52.197Z,1003.68
2023-05-14T09:37:52.212Z,1003.65
2023-05-14T09:38:52.180Z,1003.74
2023-05-14T09:39:52.171Z,1003.59
2023-05-14T09:40:52.161Z,1003.67
2023-05-14T09:41:52.138Z,1003.65
2023-05-14T09:42:52.128Z,1003.72
2023-05-14T09:43:52.126Z,1003.71
2023-05-14T09:44:52.133Z,1003.73
2023-05-14T09:45:52.098Z,1003.69
2023-05-14T09:46:57.135Z,1003.63
2023-05-14T09:47:52.233Z,1003.69
2023-05-14T09:48:52.071Z,1003.69
2023-05-14T09:49:52.059Z,1003.60
2023-05-14T09:50:52.046Z,1003.65
2023-05-14T09:51:52.028Z,1003.66
2023-05-14T09:52:52.018Z,1003.70
2023-05-14T09:53:52.057Z,1003.70
2023-05-14T09:54:52.010Z,1003.65
2023-05-14T09:55:51.988Z,1003.68
2023-05-14T09:56:53.343Z,1003.70
2023-05-14T09:57:56.980Z,1003.61
2023-05-14T09:58:51.959Z,1003.61
2023-05-14T09:59:51.950Z,1003.63
2023-05-14T10:00:51.978Z,1003.57
2023-05-14T10:01:51.920Z,1003.61
2023-05-14T10:02:51.961Z,1003.64
2023-05-14T10:03:51.933Z,1003.61
2023-05-14T10:04:51.940Z,1003.59
2023-05-14T10:05:51.872Z,1003.57
2023-05-14T10:06:51.863Z,1003.60
2023-05-14T10:07:51.858Z,1003.61
2023-05-14T10:08:56.909Z,1003.61
2023-05-14T10:09:51.825Z,1003.58
2023-05-14T10:10:51.815Z,1003.56
2023-05-14T10:11:51.806Z,1003.55
2023-05-14T10:12:51.803Z,1003.60
2023-05-14T10:13:51.781Z,1003.58
2023-05-14T10:14:51.784Z,1003.62
2023-05-14T10:15:51.764Z,1003.57
2023-05-14T10:16:51.796Z,1003.62
2023-05-14T10:17:51.807Z,1003.60
2023-05-14T10:18:51.815Z,1003.61
2023-05-14T10:19:56.739Z,1003.53
2023-05-14T10:20:51.725Z,1003.59
2023-05-14T10:21:51.699Z,1003.59
2023-05-14T10:22:51.696Z,1003.61
2023-05-14T10:23:51.672Z,1003.60
2023-05-14T10:24:51.661Z,1003.63
2023-05-14T10:25:51.649Z,1003.57
2023-05-14T10:26:51.670Z,1003.60
2023-05-14T10:27:51.628Z,1003.54
2023-05-14T10:28:51.614Z,1003.59
2023-05-14T10:29:51.609Z,1003.53
2023-05-14T10:30:56.622Z,1003.55
2023-05-14T10:31:51.617Z,1003.51
2023-05-14T10:32:51.627Z,1003.62
2023-05-14T10:33:51.556Z,1003.60
2023-05-14T10:34:51.572Z,1003.53
2023-05-14T10:35:51.543Z,1003.52
2023-05-14T10:36:51.537Z,1003.57
2023-05-14T10:37:51.515Z,1003.53
2023-05-14T10:38:51.517Z,1003.49
2023-05-14T10:39:51.504Z,1003.55
2023-05-14T10:40:54.086Z,1003.61
2023-05-14T10:41:56.504Z,1003.60
2023-05-14T10:42:51.458Z,1003.60
2023-05-14T10:43:51.448Z,1003.63
2023-05-14T10:44:51.439Z,1003.57
2023-05-14T10:45:51.455Z,1003.49
2023-05-14T10:46:51.450Z,1003.56
2023-05-14T10:47:51.433Z,1003.53
2023-05-14T10:48:51.422Z,1003.45
2023-05-14T10:49:51.377Z,1003.53
2023-05-14T10:50:51.436Z,1003.52
2023-05-14T10:51:51.376Z,1003.52
2023-05-14T10:52:56.371Z,1003.53
2023-05-14T10:53:51.341Z,1003.50
2023-05-14T10:54:51.336Z,1003.52
2023-05-14T10:55:51.325Z,1003.44
2023-05-14T10:56:51.308Z,1003.52
2023-05-14T10:57:51.307Z,1003.49
2023-05-14T10:58:51.279Z,1003.53
2023-05-14T10:59:51.277Z,1003.49
2023-05-14T11:00:51.265Z,1003.54
2023-05-14T11:01:51.300Z,1003.50
2023-05-14T11:02:51.264Z,1003.56
2023-05-14T11:03:56.306Z,1003.52
2023-05-14T11:04:51.225Z,1003.53
2023-05-14T11:05:51.210Z,1003.54
2023-05-14T11:06:51.224Z,1003.48
2023-05-14T11:07:51.183Z,1003.46
2023-05-14T11:08:51.168Z,1003.43
2023-05-14T11:09:51.173Z,1003.51
2023-05-14T11:10:51.146Z,1003.56
2023-05-14T11:11:51.134Z,1003.53
2023-05-14T11:12:51.124Z,1003.48
2023-05-14T11:13:51.122Z,1003.50
2023-05-14T11:14:56.134Z,1003.46
2023-05-14T11:15:51.100Z,1003.46
2023-05-14T11:16:51.140Z,1003.49
2023-05-14T11:17:51.109Z,1003.51
2023-05-14T11:18:51.084Z,1003.43
2023-05-14T11:19:51.225Z,1003.48
2023-05-14T11:20:51.034Z,1003.48
2023-05-14T11:21:51.039Z,1003.45
2023-05-14T11:22:51.032Z,1003.41
2023-05-14T11:23:51.021Z,1003.47
2023-05-14T11:24:51.014Z,1003.42
2023-05-14T11:25:56.032Z,1003.45
2023-05-14T11:26:50.967Z,1003.38
2023-05-14T11:27:50.985Z,1003.41
2023-05-14T11:28:50.966Z,1003.41
2023-05-14T11:29:50.935Z,1003.42
2023-05-14T11:30:50.927Z,1003.37
2023-05-14T11:31:50.964Z,1003.38
2023-05-14T11:32:50.989Z,1003.41
2023-05-14T11:33:50.911Z,1003.33
2023-05-14T11:34:50.878Z,1003.38
2023-05-14T11:35:50.862Z,1003.34
2023-05-14T11:36:55.877Z,1003.28
2023-05-14T11:37:50.860Z,1003.27
2023-05-14T11:38:50.853Z,1003.32
2023-05-14T11:39:50.874Z,1003.33
2023-05-14T11:40:50.809Z,1003.31
2023-05-14T11:41:50.800Z,1003.35
2023-05-14T11:42:50.803Z,1003.33
2023-05-14T11:43:50.778Z,1003.25
2023-05-14T11:44:50.764Z,1003.25
2023-05-14T11:45:50.779Z,1003.29
2023-05-14T11:46:50.753Z,1003.33
2023-05-14T11:47:55.762Z,1003.25
2023-05-14T11:48:50.739Z,1003.29
2023-05-14T11:49:50.707Z,1003.28
2023-05-14T11:50:50.699Z,1003.27
2023-05-14T11:51:50.723Z,1003.23
2023-05-14T11:52:50.774Z,1003.27
2023-05-14T11:53:50.667Z,1003.20
2023-05-14T11:54:50.685Z,1003.24
2023-05-14T11:55:50.643Z,1003.23
2023-05-14T11:56:50.640Z,1003.23
2023-05-14T11:57:50.631Z,1003.12
2023-05-14T11:58:55.629Z,1003.18
2023-05-14T11:59:50.593Z,1003.23
2023-05-14T12:00:50.587Z,1003.21
2023-05-14T12:01:50.849Z,1003.18
2023-05-14T12:02:50.763Z,1003.16
2023-05-14T12:03:50.633Z,1003.14
2023-05-14T12:04:50.625Z,1003.24
2023-05-14T12:05:50.545Z,1003.21
2023-05-14T12:06:50.530Z,1003.14
2023-05-14T12:07:50.519Z,1003.13
2023-05-14T12:08:50.503Z,1003.16
2023-05-14T12:09:55.526Z,1003.14
2023-05-14T12:10:50.485Z,1003.14
2023-05-14T12:11:50.459Z,1003.11
2023-05-14T12:12:50.449Z,1003.11
2023-05-14T12:13:50.438Z,1003.12
2023-05-14T12:14:50.538Z,1003.12
2023-05-14T12:15:50.485Z,1003.08
2023-05-14T12:16:50.421Z,1003.04
2023-05-14T12:17:50.429Z,1003.03
2023-05-14T12:18:50.448Z,1002.98
2023-05-14T12:19:50.394Z,1003.07
2023-05-14T12:20:55.414Z,1003.03
2023-05-14T12:21:50.372Z,1002.93
2023-05-14T12:22:50.345Z,1002.90
2023-05-14T12:23:50.321Z,1002.85
2023-05-14T12:24:50.332Z,1002.91
2023-05-14T12:25:50.317Z,1002.94
2023-05-14T12:26:50.296Z,1002.90
2023-05-14T12:27:50.304Z,1002.94
2023-05-14T12:28:50.290Z,1002.89
2023-05-14T12:29:50.268Z,1002.84
2023-05-14T12:30:50.250Z,1002.86
2023-05-14T12:31:55.336Z,1002.86
2023-05-14T12:32:50.275Z,1002.80
2023-05-14T12:33:50.243Z,1002.78
2023-05-14T12:34:50.227Z,1002.80
2023-05-14T12:35:50.246Z,1002.81
2023-05-14T12:36:50.182Z,1002.78
2023-05-14T12:37:50.180Z,1002.72
2023-05-14T12:38:50.167Z,1002.72
2023-05-14T12:39:50.173Z,1002.68
2023-05-14T12:40:50.142Z,1002.72
2023-05-14T12:41:50.220Z,1002.70
2023-05-14T12:42:56.803Z,1002.66
2023-05-14T12:43:50.114Z,1002.67
2023-05-14T12:44:50.098Z,1002.72
2023-05-14T12:45:50.103Z,1002.68
2023-05-14T12:46:50.134Z,1002.61
2023-05-14T12:47:50.096Z,1002.73
2023-05-14T12:48:51.760Z,1002.64
2023-05-14T12:49:50.040Z,1002.63
2023-05-14T12:50:50.032Z,1002.68
2023-05-14T12:51:54.505Z,1002.74
2023-05-14T12:52:50.031Z,1002.71
2023-05-14T12:53:55.031Z,1002.65
2023-05-14T12:54:49.984Z,1002.73
2023-05-14T12:55:49.977Z,1002.67
2023-05-14T12:56:49.962Z,1002.68
2023-05-14T12:57:49.990Z,1002.63
2023-05-14T12:58:49.968Z,1002.63
2023-05-14T12:59:49.930Z,1002.48
2023-05-14T13:00:49.940Z,1002.54
2023-05-14T13:01:49.908Z,1002.50
2023-05-14T13:02:49.942Z,1002.49
2023-05-14T13:03:49.931Z,1002.49
2023-05-14T13:04:54.909Z,1002.49
2023-05-14T13:05:49.858Z,1002.48
2023-05-14T13:06:49.851Z,1002.53
2023-05-14T13:07:49.845Z,1002.61
2023-05-14T13:08:49.827Z,1002.51
2023-05-14T13:09:49.815Z,1002.48
2023-05-14T13:10:49.837Z,1002.49
2023-05-14T13:11:49.802Z,1002.41
2023-05-14T13:12:49.790Z,1002.46
2023-05-14T13:13:49.794Z,1002.47
2023-05-14T13:14:49.768Z,1002.54
2023-05-14T13:15:54.769Z,1002.48
2023-05-14T13:16:49.840Z,1002.43
2023-05-14T13:17:49.785Z,1002.43
2023-05-14T13:18:49.764Z,1002.46
2023-05-14T13:19:49.702Z,1002.39
2023-05-14T13:20:49.702Z,1002.45
2023-05-14T13:21:49.691Z,1002.41
2023-05-14T13:22:49.675Z,1002.46
2023-05-14T13:23:49.675Z,1002.41
2023-05-14T13:24:49.661Z,1002.45
2023-05-14T13:25:50.079Z,1002.38
2023-05-14T13:26:54.661Z,1002.36
2023-05-14T13:27:49.617Z,1002.32
2023-05-14T13:28:49.605Z,1002.33
2023-05-14T13:29:49.621Z,1002.39
2023-05-14T13:30:49.646Z,1002.28
2023-05-14T13:31:49.580Z,1002.34
2023-05-14T13:32:49.680Z,1002.31
2023-05-14T13:33:49.549Z,1002.29
2023-05-14T13:34:49.541Z,1002.24
2023-05-14T13:35:49.552Z,1002.20
2023-05-14T13:36:49.514Z,1002.22
2023-05-14T13:37:54.559Z,1002.24
2023-05-14T13:38:49.494Z,1002.19
2023-05-14T13:39:51.239Z,1002.23
2023-05-14T13:40:49.485Z,1002.23
2023-05-14T13:41:49.468Z,1002.16
2023-05-14T13:42:49.450Z,1002.19
2023-05-14T13:43:49.439Z,1002.16
2023-05-14T13:44:49.425Z,1002.11
2023-05-14T13:45:49.447Z,1002.08
2023-05-14T13:46:49.500Z,1002.04
2023-05-14T13:47:50.829Z,1001.96
2023-05-14T13:48:54.427Z,1002.02
2023-05-14T13:49:49.392Z,1001.95
2023-05-14T13:50:49.371Z,1001.93
2023-05-14T13:51:49.351Z,1001.97
2023-05-14T13:52:49.343Z,1001.96
2023-05-14T13:53:49.334Z,1001.84
2023-05-14T13:54:49.335Z,1001.86
2023-05-14T13:55:49.503Z,1001.87
2023-05-14T13:56:49.304Z,1001.84
2023-05-14T13:57:49.288Z,1001.87
2023-05-14T13:58:49.295Z,1001.77
2023-05-14T13:59:54.301Z,1001.84
2023-05-14T14:00:49.269Z,1001.86
2023-05-14T14:01:49.274Z,1001.85
2023-05-14T14:02:49.238Z,1001.81
2023-05-14T14:03:49.218Z,1001.74
2023-05-14T14:04:49.276Z,1001.85
2023-05-14T14:05:49.197Z,1001.73
2023-05-14T14:06:49.234Z,1001.82
2023-05-14T14:07:50.445Z,1001.78
2023-05-14T14:08:49.173Z,1001.71
2023-05-14T14:09:49.161Z,1001.75
2023-05-14T14:10:54.172Z,1001.73
2023-05-14T14:11:49.144Z,1001.76
2023-05-14T14:12:49.120Z,1001.65
2023-05-14T14:13:49.137Z,1001.65
2023-05-14T14:14:49.099Z,1001.61
2023-05-14T14:15:49.165Z,1001.72
2023-05-14T14:16:49.072Z,1001.63
2023-05-14T14:17:49.119Z,1001.62
2023-05-14T14:18:49.089Z,1001.60
2023-05-14T14:19:49.086Z,1001.60
2023-05-14T14:20:49.026Z,1001.64
2023-05-14T14:21:54.060Z,1001.57
2023-05-14T14:22:49.017Z,1001.56
2023-05-14T14:23:49.084Z,1001.58
2023-05-14T14:24:48.987Z,1001.51
2023-05-14T14:25:48.987Z,1001.41
2023-05-14T14:26:48.961Z,1001.49
2023-05-14T14:27:49.311Z,1001.55
2023-05-14T14:28:48.940Z,1001.51
2023-05-14T14:29:48.930Z,1001.51
2023-05-14T14:30:49.017Z,1001.45
2023-05-14T14:31:48.958Z,1001.52
2023-05-14T14:32:54.041Z,1001.48
2023-05-14T14:33:48.887Z,1001.42
2023-05-14T14:34:48.875Z,1001.48
2023-05-14T14:35:48.948Z,1001.43
2023-05-14T14:36:48.856Z,1001.44
2023-05-14T14:37:48.878Z,1001.49
2023-05-14T14:38:48.832Z,1001.43
2023-05-14T14:39:48.823Z,1001.51
2023-05-14T14:40:48.813Z,1001.56
2023-05-14T14:41:48.857Z,1001.45
2023-05-14T14:42:48.812Z,1001.50
2023-05-14T14:43:53.806Z,1001.44
2023-05-14T14:44:48.762Z,1001.42
2023-05-14T14:45:49.178Z,1001.37
2023-05-14T14:46:48.753Z,1001.42
2023-05-14T14:47:48.839Z,1001.41
2023-05-14T14:48:48.746Z,1001.30
2023-05-14T14:49:48.718Z,1001.40
2023-05-14T14:50:48.699Z,1001.37
2023-05-14T14:51:48.736Z,1001.26
2023-05-14T14:52:48.675Z,1001.41
2023-05-14T14:53:48.701Z,1001.33
2023-05-14T14:54:53.674Z,1001.35
2023-05-14T14:55:48.648Z,1001.29
2023-05-14T14:56:48.648Z,1001.24
2023-05-14T14:57:48.622Z,1001.28
2023-05-14T14:58:48.607Z,1001.33
2023-05-14T14:59:48.623Z,1001.33
2023-05-14T15:00:48.639Z,1001.28
2023-05-14T15:01:48.766Z,1001.26
2023-05-14T15:02:48.685Z,1001.25
2023-05-14T15:03:48.578Z,1001.33
2023-05-14T15:04:48.565Z,1001.25
2023-05-14T15:05:53.848Z,1001.27
2023-05-14T15:06:48.526Z,1001.30
2023-05-14T15:07:48.510Z,1001.32
2023-05-14T15:08:48.499Z,1001.31
2023-05-14T15:09:48.487Z,1001.20
2023-05-14T15:10:48.486Z,1001.28
2023-05-14T15:11:48.527Z,1001.26
2023-05-14T15:12:48.460Z,1001.25
2023-05-14T15:13:48.446Z,1001.25
2023-05-14T15:14:48.440Z,1001.22
2023-05-14T15:15:48.432Z,1001.18
2023-05-14T15:16:53.472Z,1001.22
2023-05-14T15:17:48.468Z,1001.24
2023-05-14T15:18:48.505Z,1001.21
2023-05-14T15:19:48.392Z,1001.18
2023-05-14T15:20:48.410Z,1001.23
2023-05-14T15:21:48.356Z,1001.26
2023-05-14T15:22:48.347Z,1001.17
2023-05-14T15:23:48.337Z,1001.17
2023-05-14T15:24:48.418Z,1001.19
2023-05-14T15:25:48.312Z,1001.19
2023-05-14T15:26:48.311Z,1001.18
2023-05-14T15:27:53.350Z,1001.19
2023-05-14T15:28:48.286Z,1001.15
2023-05-14T15:29:48.280Z,1001.18
2023-05-14T15:30:48.312Z,1001.15
2023-05-14T15:31:48.281Z,1001.17
2023-05-14T15:32:48.296Z,1001.14
2023-05-14T15:33:48.232Z,1001.14
2023-05-14T15:34:48.217Z,1001.22
2023-05-14T15:35:48.205Z,1001.15
2023-05-14T15:36:48.228Z,1001.20
2023-05-14T15:37:48.279Z,1001.19
2023-05-14T15:38:53.204Z,1001.13
2023-05-14T15:39:48.166Z,1001.12
2023-05-14T15:40:48.156Z,1001.09
2023-05-14T15:41:48.142Z,1001.14
2023-05-14T15:42:48.123Z,1001.15
2023-05-14T15:43:48.203Z,1001.11
2023-05-14T15:44:48.105Z,1001.12
2023-05-14T15:45:48.093Z,1001.17
2023-05-14T15:46:48.156Z,1001.20
2023-05-14T15:47:48.110Z,1001.16
2023-05-14T15:48:48.067Z,1001.18
2023-05-14T15:49:53.078Z,1001.13
2023-05-14T15:50:49.483Z,1001.14
2023-05-14T15:51:48.024Z,1001.08
2023-05-14T15:52:48.043Z,1001.08
2023-05-14T15:53:48.015Z,1001.11
2023-05-14T15:54:47.997Z,1000.99
2023-05-14T15:55:47.978Z,1001.05
2023-05-14T15:56:48.009Z,1000.99
2023-05-14T15:57:47.963Z,1001.00
2023-05-14T15:58:47.942Z,1001.04
2023-05-14T15:59:47.928Z,1001.00
2023-05-14T16:00:52.943Z,1000.98
2023-05-14T16:01:47.985Z,1001.00
2023-05-14T16:02:48.075Z,1001.03
2023-05-14T16:03:47.968Z,1001.03
2023-05-14T16:04:47.880Z,1000.97
2023-05-14T16:05:47.863Z,1000.94
2023-05-14T16:06:47.860Z,1000.94
2023-05-14T16:07:47.858Z,1000.94
2023-05-14T16:08:47.940Z,1001.02
2023-05-14T16:09:47.848Z,1001.01
2023-05-14T16:10:47.810Z,1000.92
2023-05-14T16:11:52.831Z,1000.96
2023-05-14T16:12:47.796Z,1001.02
2023-05-14T16:13:47.775Z,1000.91
2023-05-14T16:14:47.827Z,1001.01
2023-05-14T16:15:47.762Z,1001.00
2023-05-14T16:16:47.820Z,1000.95
2023-05-14T16:17:47.751Z,1000.95
2023-05-14T16:18:47.735Z,1000.91
2023-05-14T16:19:47.733Z,1000.99
2023-05-14T16:20:47.756Z,1000.99
2023-05-14T16:21:47.689Z,1000.90
2023-05-14T16:22:52.698Z,1000.89
2023-05-14T16:23:47.678Z,1000.90
2023-05-14T16:24:47.684Z,1000.88
2023-05-14T16:25:47.650Z,1000.93
2023-05-14T16:26:47.636Z,1000.91
2023-05-14T16:27:47.724Z,1000.84
2023-05-14T16:28:47.613Z,1000.86
2023-05-14T16:29:47.622Z,1000.87
2023-05-14T16:30:47.587Z,1000.87
2023-05-14T16:31:47.603Z,1000.75
2023-05-14T16:32:47.598Z,1000.80
2023-05-14T16:33:52.740Z,1000.85
2023-05-14T16:34:47.557Z,1000.88
2023-05-14T16:35:47.531Z,1000.85
2023-05-14T16:36:47.531Z,1000.88
2023-05-14T16:37:47.519Z,1000.83
2023-05-14T16:39:05.171Z,1000.92
2023-05-14T16:39:47.494Z,1000.96
2023-05-14T16:40:47.557Z,1000.84
2023-05-14T16:41:47.458Z,1000.96
2023-05-14T16:42:49.267Z,1000.94
2023-05-14T16:43:47.440Z,1000.94
2023-05-14T16:44:52.451Z,1000.94
2023-05-14T16:45:47.512Z,1000.93
2023-05-14T16:46:47.399Z,1000.90
2023-05-14T16:47:47.529Z,1000.95
2023-05-14T16:48:47.384Z,1000.88
2023-05-14T16:49:47.361Z,1000.89
2023-05-14T16:50:47.349Z,1000.91
2023-05-14T16:51:47.348Z,1000.97
2023-05-14T16:52:47.338Z,1000.96
2023-05-14T16:53:47.429Z,1000.92
2023-05-14T16:54:47.306Z,1000.94
2023-05-14T16:55:52.336Z,1000.90
2023-05-14T16:56:47.349Z,1000.84
2023-05-14T16:57:47.283Z,1000.80
2023-05-14T16:58:47.279Z,1000.84
2023-05-14T16:59:47.355Z,1000.85
2023-05-14T17:00:47.234Z,1000.87
2023-05-14T17:01:47.262Z,1000.87
2023-05-14T17:02:47.253Z,1000.97
2023-05-14T17:03:47.204Z,1000.90
2023-05-14T17:04:47.207Z,1000.85
2023-05-14T17:05:47.282Z,1000.93